sensor_id;sensor_type;location;lat;lon;timestamp;P1;durP1;ratioP1;P2;durP2;ratioP2
10191;SDS011;17580;50.850;4.504;2024-03-29T00:00:01;3.70;;;1.43;;
10191;SDS011;17580;50.850;4.504;2024-03-29T00:02:29;2.67;;;1.40;;
10191;SDS011;17580;50.850;4.504;2024-03-29T00:04:55;2.10;;;1.27;;
10191;SDS011;17580;50.850;4.504;2024-03-29T00:07:21;1.63;;;1.00;;
10191;SDS011;17580;50.850;4.504;2024-03-29T00:09:48;3.10;;;1.20;;
10191;SDS011;17580;50.850;4.504;2024-03-29T00:12:14;4.70;;;1.67;;
10191;SDS011;17580;50.850;4.504;2024-03-29T00:14:41;2.57;;;1.37;;
10191;SDS011;17580;50.850;4.504;2024-03-29T00:17:07;1.80;;;1.20;;
10191;SDS011;17580;50.850;4.504;2024-03-29T00:19:35;1.03;;;0.80;;
10191;SDS011;17580;50.850;4.504;2024-03-29T00:22:01;3.33;;;1.23;;
10191;SDS011;17580;50.850;4.504;2024-03-29T00:24:28;3.50;;;1.03;;
10191;SDS011;17580;50.850;4.504;2024-03-29T00:26:54;1.37;;;1.27;;
10191;SDS011;17580;50.850;4.504;2024-03-29T00:29:21;7.63;;;1.50;;
10191;SDS011;17580;50.850;4.504;2024-03-29T00:31:47;1.53;;;1.20;;
10191;SDS011;17580;50.850;4.504;2024-03-29T00:34:13;1.20;;;1.10;;
10191;SDS011;17580;50.850;4.504;2024-03-29T00:36:41;1.40;;;1.07;;
10191;SDS011;17580;50.850;4.504;2024-03-29T00:39:08;4.97;;;1.40;;
10191;SDS011;17580;50.850;4.504;2024-03-29T00:41:34;2.43;;;1.10;;
10191;SDS011;17580;50.850;4.504;2024-03-29T00:44:01;3.43;;;1.60;;
10191;SDS011;17580;50.850;4.504;2024-03-29T00:46:27;4.60;;;1.20;;
10191;SDS011;17580;50.850;4.504;2024-03-29T00:48:53;1.03;;;0.93;;
10191;SDS011;17580;50.850;4.504;2024-03-29T00:51:20;2.37;;;1.23;;
10191;SDS011;17580;50.850;4.504;2024-03-29T00:53:48;3.20;;;1.20;;
10191;SDS011;17580;50.850;4.504;2024-03-29T00:56:15;1.97;;;1.00;;
10191;SDS011;17580;50.850;4.504;2024-03-29T00:58:41;1.57;;;1.00;;
10191;SDS011;17580;50.850;4.504;2024-03-29T01:01:07;1.90;;;1.17;;
10191;SDS011;17580;50.850;4.504;2024-03-29T01:03:34;3.23;;;1.17;;
10191;SDS011;17580;50.850;4.504;2024-03-29T01:06:00;2.53;;;1.17;;
10191;SDS011;17580;50.850;4.504;2024-03-29T01:08:26;1.77;;;1.07;;
10191;SDS011;17580;50.850;4.504;2024-03-29T01:10:54;1.53;;;1.13;;
10191;SDS011;17580;50.850;4.504;2024-03-29T01:13:20;2.73;;;1.20;;
10191;SDS011;17580;50.850;4.504;2024-03-29T01:15:47;1.37;;;1.20;;
10191;SDS011;17580;50.850;4.504;2024-03-29T01:18:13;4.93;;;1.83;;
10191;SDS011;17580;50.850;4.504;2024-03-29T01:20:40;3.97;;;1.47;;
10191;SDS011;17580;50.850;4.504;2024-03-29T01:23:07;1.97;;;1.00;;
10191;SDS011;17580;50.850;4.504;2024-03-29T01:25:33;3.40;;;1.40;;
10191;SDS011;17580;50.850;4.504;2024-03-29T01:28:01;2.47;;;1.20;;
10191;SDS011;17580;50.850;4.504;2024-03-29T01:30:27;3.50;;;1.20;;
10191;SDS011;17580;50.850;4.504;2024-03-29T01:32:53;0.90;;;0.90;;
10191;SDS011;17580;50.850;4.504;2024-03-29T01:35:20;6.33;;;1.30;;
10191;SDS011;17580;50.850;4.504;2024-03-29T01:37:46;1.43;;;1.07;;
10191;SDS011;17580;50.850;4.504;2024-03-29T01:40:13;2.43;;;1.30;;
10191;SDS011;17580;50.850;4.504;2024-03-29T01:42:39;2.77;;;1.43;;
10191;SDS011;17580;50.850;4.504;2024-03-29T01:45:07;2.20;;;0.73;;
10191;SDS011;17580;50.850;4.504;2024-03-29T01:47:35;2.70;;;1.37;;
10191;SDS011;17580;50.850;4.504;2024-03-29T01:50:02;1.77;;;1.20;;
10191;SDS011;17580;50.850;4.504;2024-03-29T01:52:30;3.27;;;0.90;;
10191;SDS011;17580;50.850;4.504;2024-03-29T01:54:57;1.40;;;0.80;;
10191;SDS011;17580;50.850;4.504;2024-03-29T01:57:25;1.10;;;0.70;;
10191;SDS011;17580;50.850;4.504;2024-03-29T01:59:52;1.33;;;0.90;;
10191;SDS011;17580;50.850;4.504;2024-03-29T02:02:21;1.63;;;1.07;;
10191;SDS011;17580;50.850;4.504;2024-03-29T02:04:49;1.30;;;1.20;;
10191;SDS011;17580;50.850;4.504;2024-03-29T02:07:17;0.83;;;0.70;;
10191;SDS011;17580;50.850;4.504;2024-03-29T02:09:44;2.17;;;0.80;;
10191;SDS011;17580;50.850;4.504;2024-03-29T02:12:11;1.47;;;0.90;;
10191;SDS011;17580;50.850;4.504;2024-03-29T02:14:39;0.93;;;0.73;;
10191;SDS011;17580;50.850;4.504;2024-03-29T02:17:07;1.70;;;0.70;;
10191;SDS011;17580;50.850;4.504;2024-03-29T02:19:36;0.87;;;0.60;;
10191;SDS011;17580;50.850;4.504;2024-03-29T02:22:03;2.20;;;0.80;;
10191;SDS011;17580;50.850;4.504;2024-03-29T02:24:34;1.33;;;0.87;;
10191;SDS011;17580;50.850;4.504;2024-03-29T02:27:01;1.30;;;0.70;;
10191;SDS011;17580;50.850;4.504;2024-03-29T02:29:29;4.80;;;1.00;;
10191;SDS011;17580;50.850;4.504;2024-03-29T02:31:57;1.23;;;0.60;;
10191;SDS011;17580;50.850;4.504;2024-03-29T02:34:24;0.80;;;0.80;;
10191;SDS011;17580;50.850;4.504;2024-03-29T02:36:52;0.67;;;0.57;;
10191;SDS011;17580;50.850;4.504;2024-03-29T02:39:19;1.27;;;0.80;;
10191;SDS011;17580;50.850;4.504;2024-03-29T02:41:48;1.20;;;0.77;;
10191;SDS011;17580;50.850;4.504;2024-03-29T02:44:16;0.80;;;0.80;;
10191;SDS011;17580;50.850;4.504;2024-03-29T02:46:43;0.67;;;0.67;;
10191;SDS011;17580;50.850;4.504;2024-03-29T02:49:10;0.70;;;0.70;;
10191;SDS011;17580;50.850;4.504;2024-03-29T02:51:37;1.00;;;0.70;;
10191;SDS011;17580;50.850;4.504;2024-03-29T02:54:04;1.43;;;0.70;;
10191;SDS011;17580;50.850;4.504;2024-03-29T02:56:31;1.03;;;0.60;;
10191;SDS011;17580;50.850;4.504;2024-03-29T02:58:59;0.70;;;0.70;;
10191;SDS011;17580;50.850;4.504;2024-03-29T03:01:26;1.57;;;1.13;;
10191;SDS011;17580;50.850;4.504;2024-03-29T03:03:53;1.20;;;0.87;;
10191;SDS011;17580;50.850;4.504;2024-03-29T03:06:19;0.97;;;0.80;;
10191;SDS011;17580;50.850;4.504;2024-03-29T03:08:47;0.83;;;0.80;;
10191;SDS011;17580;50.850;4.504;2024-03-29T03:11:32;0.93;;;0.70;;
10191;SDS011;17580;50.850;4.504;2024-03-29T03:14:00;3.70;;;1.10;;
10191;SDS011;17580;50.850;4.504;2024-03-29T03:16:28;1.57;;;1.00;;
10191;SDS011;17580;50.850;4.504;2024-03-29T03:18:55;1.70;;;0.90;;
10191;SDS011;17580;50.850;4.504;2024-03-29T03:21:22;1.13;;;1.00;;
10191;SDS011;17580;50.850;4.504;2024-03-29T03:23:49;2.17;;;1.10;;
10191;SDS011;17580;50.850;4.504;2024-03-29T03:26:16;0.73;;;0.70;;
10191;SDS011;17580;50.850;4.504;2024-03-29T03:28:42;3.00;;;1.07;;
10191;SDS011;17580;50.850;4.504;2024-03-29T03:31:11;1.50;;;0.80;;
10191;SDS011;17580;50.850;4.504;2024-03-29T03:33:38;2.27;;;1.00;;
10191;SDS011;17580;50.850;4.504;2024-03-29T03:36:05;1.67;;;0.83;;
10191;SDS011;17580;50.850;4.504;2024-03-29T03:38:32;2.93;;;1.20;;
10191;SDS011;17580;50.850;4.504;2024-03-29T03:41:02;3.40;;;1.10;;
10191;SDS011;17580;50.850;4.504;2024-03-29T03:43:28;1.60;;;0.90;;
10191;SDS011;17580;50.850;4.504;2024-03-29T03:45:59;5.03;;;1.27;;
10191;SDS011;17580;50.850;4.504;2024-03-29T03:48:27;4.47;;;1.07;;
10191;SDS011;17580;50.850;4.504;2024-03-29T03:50:55;1.73;;;1.03;;
10191;SDS011;17580;50.850;4.504;2024-03-29T03:53:21;2.50;;;1.10;;
10191;SDS011;17580;50.850;4.504;2024-03-29T03:55:49;3.43;;;1.10;;
10191;SDS011;17580;50.850;4.504;2024-03-29T03:58:15;2.50;;;1.10;;
10191;SDS011;17580;50.850;4.504;2024-03-29T04:00:42;1.10;;;1.10;;
10191;SDS011;17580;50.850;4.504;2024-03-29T04:03:09;3.80;;;1.63;;
10191;SDS011;17580;50.850;4.504;2024-03-29T04:05:38;3.00;;;1.33;;
10191;SDS011;17580;50.850;4.504;2024-03-29T04:08:04;1.67;;;1.30;;
10191;SDS011;17580;50.850;4.504;2024-03-29T04:10:31;1.10;;;1.10;;
10191;SDS011;17580;50.850;4.504;2024-03-29T04:12:58;3.83;;;1.17;;
10191;SDS011;17580;50.850;4.504;2024-03-29T04:15:25;2.63;;;1.10;;
10191;SDS011;17580;50.850;4.504;2024-03-29T04:17:52;1.40;;;1.00;;
10191;SDS011;17580;50.850;4.504;2024-03-29T04:20:19;4.03;;;1.53;;
10191;SDS011;17580;50.850;4.504;2024-03-29T04:22:47;2.20;;;1.10;;
10191;SDS011;17580;50.850;4.504;2024-03-29T04:25:14;3.67;;;1.50;;
10191;SDS011;17580;50.850;4.504;2024-03-29T04:27:40;4.07;;;1.50;;
10191;SDS011;17580;50.850;4.504;2024-03-29T04:30:08;1.67;;;0.97;;
10191;SDS011;17580;50.850;4.504;2024-03-29T04:32:34;1.27;;;1.00;;
10191;SDS011;17580;50.850;4.504;2024-03-29T04:35:02;1.53;;;0.90;;
10191;SDS011;17580;50.850;4.504;2024-03-29T04:37:29;1.53;;;1.30;;
10191;SDS011;17580;50.850;4.504;2024-03-29T04:39:57;1.93;;;1.10;;
10191;SDS011;17580;50.850;4.504;2024-03-29T04:42:25;1.33;;;1.20;;
10191;SDS011;17580;50.850;4.504;2024-03-29T04:44:52;1.23;;;0.90;;
10191;SDS011;17580;50.850;4.504;2024-03-29T04:47:19;1.83;;;1.00;;
10191;SDS011;17580;50.850;4.504;2024-03-29T04:49:47;0.80;;;0.80;;
10191;SDS011;17580;50.850;4.504;2024-03-29T04:52:14;1.57;;;1.20;;
10191;SDS011;17580;50.850;4.504;2024-03-29T04:54:42;1.50;;;0.70;;
10191;SDS011;17580;50.850;4.504;2024-03-29T04:57:11;0.90;;;0.90;;
10191;SDS011;17580;50.850;4.504;2024-03-29T04:59:38;0.73;;;0.73;;
10191;SDS011;17580;50.850;4.504;2024-03-29T05:02:05;0.90;;;0.90;;
10191;SDS011;17580;50.850;4.504;2024-03-29T05:04:33;1.97;;;1.03;;
10191;SDS011;17580;50.850;4.504;2024-03-29T05:07:00;0.97;;;0.70;;
10191;SDS011;17580;50.850;4.504;2024-03-29T05:09:27;0.90;;;0.90;;
10191;SDS011;17580;50.850;4.504;2024-03-29T05:11:56;0.87;;;0.80;;
10191;SDS011;17580;50.850;4.504;2024-03-29T05:14:25;1.80;;;1.10;;
10191;SDS011;17580;50.850;4.504;2024-03-29T05:16:52;2.00;;;0.93;;
10191;SDS011;17580;50.850;4.504;2024-03-29T05:19:19;1.70;;;1.13;;
10191;SDS011;17580;50.850;4.504;2024-03-29T05:21:47;1.40;;;0.70;;
10191;SDS011;17580;50.850;4.504;2024-03-29T05:24:14;0.73;;;0.73;;
10191;SDS011;17580;50.850;4.504;2024-03-29T05:26:42;0.73;;;0.73;;
10191;SDS011;17580;50.850;4.504;2024-03-29T05:29:09;3.77;;;1.00;;
10191;SDS011;17580;50.850;4.504;2024-03-29T05:31:38;1.60;;;1.50;;
10191;SDS011;17580;50.850;4.504;2024-03-29T05:34:07;1.80;;;0.90;;
10191;SDS011;17580;50.850;4.504;2024-03-29T05:36:34;2.17;;;1.30;;
10191;SDS011;17580;50.850;4.504;2024-03-29T05:39:02;1.00;;;1.00;;
10191;SDS011;17580;50.850;4.504;2024-03-29T05:41:30;1.13;;;0.90;;
10191;SDS011;17580;50.850;4.504;2024-03-29T05:43:57;3.97;;;1.30;;
10191;SDS011;17580;50.850;4.504;2024-03-29T05:46:24;1.63;;;1.53;;
10191;SDS011;17580;50.850;4.504;2024-03-29T05:48:53;1.80;;;1.37;;
10191;SDS011;17580;50.850;4.504;2024-03-29T05:51:21;1.43;;;1.33;;
10191;SDS011;17580;50.850;4.504;2024-03-29T05:53:48;2.03;;;1.80;;
10191;SDS011;17580;50.850;4.504;2024-03-29T05:56:15;1.73;;;1.20;;
10191;SDS011;17580;50.850;4.504;2024-03-29T05:58:43;1.10;;;1.10;;
10191;SDS011;17580;50.850;4.504;2024-03-29T06:01:10;4.70;;;1.53;;
10191;SDS011;17580;50.850;4.504;2024-03-29T06:03:37;1.50;;;1.40;;
10191;SDS011;17580;50.850;4.504;2024-03-29T06:06:06;2.10;;;1.45;;
10191;SDS011;17580;50.850;4.504;2024-03-29T06:08:37;2.30;;;1.20;;
10191;SDS011;17580;50.850;4.504;2024-03-29T06:11:04;1.40;;;1.07;;
10191;SDS011;17580;50.850;4.504;2024-03-29T06:13:32;0.90;;;0.90;;
10191;SDS011;17580;50.850;4.504;2024-03-29T06:16:13;1.33;;;0.93;;
10191;SDS011;17580;50.850;4.504;2024-03-29T06:18:58;1.03;;;1.00;;
10191;SDS011;17580;50.850;4.504;2024-03-29T06:21:26;0.90;;;0.90;;
10191;SDS011;17580;50.850;4.504;2024-03-29T06:23:54;2.00;;;1.00;;
10191;SDS011;17580;50.850;4.504;2024-03-29T06:26:21;1.67;;;1.30;;
10191;SDS011;17580;50.850;4.504;2024-03-29T06:28:48;3.03;;;1.40;;
10191;SDS011;17580;50.850;4.504;2024-03-29T06:31:16;1.17;;;0.90;;
10191;SDS011;17580;50.850;4.504;2024-03-29T06:33:43;1.37;;;1.27;;
10191;SDS011;17580;50.850;4.504;2024-03-29T06:36:10;2.37;;;1.23;;
10191;SDS011;17580;50.850;4.504;2024-03-29T06:38:39;2.50;;;1.30;;
10191;SDS011;17580;50.850;4.504;2024-03-29T06:41:06;1.97;;;1.40;;
10191;SDS011;17580;50.850;4.504;2024-03-29T06:43:34;1.70;;;1.50;;
10191;SDS011;17580;50.850;4.504;2024-03-29T06:46:01;1.90;;;1.73;;
10191;SDS011;17580;50.850;4.504;2024-03-29T06:48:29;1.80;;;1.20;;
10191;SDS011;17580;50.850;4.504;2024-03-29T06:50:56;1.87;;;1.40;;
10191;SDS011;17580;50.850;4.504;2024-03-29T06:53:24;2.77;;;1.33;;
10191;SDS011;17580;50.850;4.504;2024-03-29T06:55:54;1.53;;;1.43;;
10191;SDS011;17580;50.850;4.504;2024-03-29T06:58:21;2.37;;;1.60;;
10191;SDS011;17580;50.850;4.504;2024-03-29T07:00:48;1.50;;;1.40;;
10191;SDS011;17580;50.850;4.504;2024-03-29T07:03:17;2.17;;;1.43;;
10191;SDS011;17580;50.850;4.504;2024-03-29T07:05:45;1.20;;;1.10;;
10191;SDS011;17580;50.850;4.504;2024-03-29T07:08:12;1.50;;;1.40;;
10191;SDS011;17580;50.850;4.504;2024-03-29T07:10:40;1.93;;;1.27;;
10191;SDS011;17580;50.850;4.504;2024-03-29T07:13:08;5.37;;;1.50;;
10191;SDS011;17580;50.850;4.504;2024-03-29T07:15:36;1.40;;;1.30;;
10191;SDS011;17580;50.850;4.504;2024-03-29T07:18:03;5.20;;;2.07;;
10191;SDS011;17580;50.850;4.504;2024-03-29T07:20:31;2.27;;;1.90;;
10191;SDS011;17580;50.850;4.504;2024-03-29T07:22:58;2.00;;;1.57;;
10191;SDS011;17580;50.850;4.504;2024-03-29T07:25:26;1.47;;;1.37;;
10191;SDS011;17580;50.850;4.504;2024-03-29T07:27:53;2.63;;;1.83;;
10191;SDS011;17580;50.850;4.504;2024-03-29T07:30:22;7.37;;;1.90;;
10191;SDS011;17580;50.850;4.504;2024-03-29T07:32:49;2.37;;;1.70;;
10191;SDS011;17580;50.850;4.504;2024-03-29T07:35:16;2.40;;;1.67;;
10191;SDS011;17580;50.850;4.504;2024-03-29T07:37:44;1.63;;;1.50;;
10191;SDS011;17580;50.850;4.504;2024-03-29T07:40:14;3.67;;;1.70;;
10191;SDS011;17580;50.850;4.504;2024-03-29T07:42:41;2.77;;;1.77;;
10191;SDS011;17580;50.850;4.504;2024-03-29T07:45:09;3.87;;;1.43;;
10191;SDS011;17580;50.850;4.504;2024-03-29T07:47:38;4.03;;;2.23;;
10191;SDS011;17580;50.850;4.504;2024-03-29T07:50:05;1.40;;;1.30;;
10191;SDS011;17580;50.850;4.504;2024-03-29T07:52:35;2.63;;;1.97;;
10191;SDS011;17580;50.850;4.504;2024-03-29T07:55:02;2.83;;;1.70;;
10191;SDS011;17580;50.850;4.504;2024-03-29T07:57:29;2.70;;;1.70;;
10191;SDS011;17580;50.850;4.504;2024-03-29T07:59:57;2.97;;;1.30;;
10191;SDS011;17580;50.850;4.504;2024-03-29T08:02:24;2.97;;;1.70;;
10191;SDS011;17580;50.850;4.504;2024-03-29T08:04:54;3.93;;;1.60;;
10191;SDS011;17580;50.850;4.504;2024-03-29T08:07:21;3.60;;;1.93;;
10191;SDS011;17580;50.850;4.504;2024-03-29T08:09:49;2.63;;;1.47;;
10191;SDS011;17580;50.850;4.504;2024-03-29T08:12:16;4.27;;;1.80;;
10191;SDS011;17580;50.850;4.504;2024-03-29T08:14:44;3.53;;;1.83;;
10191;SDS011;17580;50.850;4.504;2024-03-29T08:17:11;3.13;;;1.60;;
10191;SDS011;17580;50.850;4.504;2024-03-29T08:19:39;1.70;;;1.60;;
10191;SDS011;17580;50.850;4.504;2024-03-29T08:22:09;2.17;;;1.73;;
10191;SDS011;17580;50.850;4.504;2024-03-29T08:24:36;2.77;;;2.17;;
10191;SDS011;17580;50.850;4.504;2024-03-29T08:27:04;1.80;;;1.70;;
10191;SDS011;17580;50.850;4.504;2024-03-29T08:29:31;2.73;;;1.73;;
10191;SDS011;17580;50.850;4.504;2024-03-29T08:31:59;1.90;;;1.80;;
10191;SDS011;17580;50.850;4.504;2024-03-29T08:34:26;2.33;;;2.00;;
10191;SDS011;17580;50.850;4.504;2024-03-29T08:36:59;4.73;;;1.80;;
10191;SDS011;17580;50.850;4.504;2024-03-29T08:39:29;3.87;;;1.80;;
10191;SDS011;17580;50.850;4.504;2024-03-29T08:41:56;3.87;;;1.87;;
10191;SDS011;17580;50.850;4.504;2024-03-29T08:44:24;1.97;;;1.80;;
10191;SDS011;17580;50.850;4.504;2024-03-29T08:46:51;1.57;;;1.53;;
10191;SDS011;17580;50.850;4.504;2024-03-29T08:49:22;1.87;;;1.50;;
10191;SDS011;17580;50.850;4.504;2024-03-29T08:51:49;2.30;;;2.13;;
10191;SDS011;17580;50.850;4.504;2024-03-29T08:54:17;1.60;;;1.50;;
10191;SDS011;17580;50.850;4.504;2024-03-29T08:56:45;2.73;;;2.10;;
10191;SDS011;17580;50.850;4.504;2024-03-29T08:59:13;1.73;;;1.53;;
10191;SDS011;17580;50.850;4.504;2024-03-29T09:01:41;1.87;;;1.77;;
10191;SDS011;17580;50.850;4.504;2024-03-29T09:04:09;1.67;;;1.50;;
10191;SDS011;17580;50.850;4.504;2024-03-29T09:06:37;1.77;;;1.33;;
10191;SDS011;17580;50.850;4.504;2024-03-29T09:09:04;1.17;;;1.17;;
10191;SDS011;17580;50.850;4.504;2024-03-29T09:11:32;1.27;;;1.20;;
10191;SDS011;17580;50.850;4.504;2024-03-29T09:14:01;4.03;;;1.77;;
10191;SDS011;17580;50.850;4.504;2024-03-29T09:16:29;1.90;;;1.47;;
10191;SDS011;17580;50.850;4.504;2024-03-29T09:18:57;1.63;;;1.50;;
10191;SDS011;17580;50.850;4.504;2024-03-29T09:21:24;1.27;;;1.10;;
10191;SDS011;17580;50.850;4.504;2024-03-29T09:23:52;1.27;;;1.27;;
10191;SDS011;17580;50.850;4.504;2024-03-29T09:26:20;1.60;;;1.50;;
10191;SDS011;17580;50.850;4.504;2024-03-29T09:28:47;1.20;;;1.20;;
10191;SDS011;17580;50.850;4.504;2024-03-29T09:31:16;1.93;;;1.07;;
10191;SDS011;17580;50.850;4.504;2024-03-29T09:33:43;1.00;;;1.00;;
10191;SDS011;17580;50.850;4.504;2024-03-29T09:36:12;2.37;;;0.97;;
10191;SDS011;17580;50.850;4.504;2024-03-29T09:38:40;0.90;;;0.90;;
10191;SDS011;17580;50.850;4.504;2024-03-29T09:41:09;1.13;;;1.10;;
10191;SDS011;17580;50.850;4.504;2024-03-29T09:43:38;1.23;;;1.20;;
10191;SDS011;17580;50.850;4.504;2024-03-29T09:46:06;0.90;;;0.90;;
10191;SDS011;17580;50.850;4.504;2024-03-29T09:48:36;0.97;;;0.97;;
10191;SDS011;17580;50.850;4.504;2024-03-29T09:51:04;1.27;;;0.93;;
10191;SDS011;17580;50.850;4.504;2024-03-29T09:53:32;1.60;;;1.10;;
10191;SDS011;17580;50.850;4.504;2024-03-29T09:56:01;0.90;;;0.90;;
10191;SDS011;17580;50.850;4.504;2024-03-29T09:58:30;1.00;;;1.00;;
10191;SDS011;17580;50.850;4.504;2024-03-29T10:00:57;1.93;;;1.07;;
10191;SDS011;17580;50.850;4.504;2024-03-29T10:03:25;1.40;;;1.03;;
10191;SDS011;17580;50.850;4.504;2024-03-29T10:05:56;1.13;;;1.00;;
10191;SDS011;17580;50.850;4.504;2024-03-29T10:08:25;1.10;;;1.10;;
10191;SDS011;17580;50.850;4.504;2024-03-29T10:10:53;1.10;;;1.10;;
10191;SDS011;17580;50.850;4.504;2024-03-29T10:13:21;4.53;;;1.57;;
10191;SDS011;17580;50.850;4.504;2024-03-29T10:15:48;1.10;;;1.10;;
10191;SDS011;17580;50.850;4.504;2024-03-29T10:18:18;1.37;;;1.27;;
10191;SDS011;17580;50.850;4.504;2024-03-29T10:20:45;1.17;;;0.97;;
10191;SDS011;17580;50.850;4.504;2024-03-29T10:23:14;1.00;;;1.00;;
10191;SDS011;17580;50.850;4.504;2024-03-29T10:25:43;1.27;;;1.10;;
10191;SDS011;17580;50.850;4.504;2024-03-29T10:28:11;1.70;;;1.00;;
10191;SDS011;17580;50.850;4.504;2024-03-29T10:30:38;1.20;;;1.10;;
10191;SDS011;17580;50.850;4.504;2024-03-29T10:33:05;1.20;;;1.10;;
10191;SDS011;17580;50.850;4.504;2024-03-29T10:35:33;1.00;;;1.00;;
10191;SDS011;17580;50.850;4.504;2024-03-29T10:38:02;1.27;;;1.27;;
10191;SDS011;17580;50.850;4.504;2024-03-29T10:40:31;1.23;;;1.23;;
10191;SDS011;17580;50.850;4.504;2024-03-29T10:42:58;1.00;;;1.00;;
10191;SDS011;17580;50.850;4.504;2024-03-29T10:45:29;6.23;;;1.50;;
10191;SDS011;17580;50.850;4.504;2024-03-29T10:47:57;1.20;;;1.20;;
10191;SDS011;17580;50.850;4.504;2024-03-29T10:50:25;1.40;;;1.30;;
10191;SDS011;17580;50.850;4.504;2024-03-29T10:52:53;1.40;;;1.30;;
10191;SDS011;17580;50.850;4.504;2024-03-29T10:55:20;1.40;;;1.23;;
10191;SDS011;17580;50.850;4.504;2024-03-29T10:57:50;0.90;;;0.90;;
10191;SDS011;17580;50.850;4.504;2024-03-29T11:00:20;5.93;;;1.20;;
10191;SDS011;17580;50.850;4.504;2024-03-29T11:02:49;2.23;;;1.27;;
10191;SDS011;17580;50.850;4.504;2024-03-29T11:05:17;1.10;;;1.10;;
10191;SDS011;17580;50.850;4.504;2024-03-29T11:07:45;4.93;;;1.40;;
10191;SDS011;17580;50.850;4.504;2024-03-29T11:10:14;1.47;;;1.10;;
10191;SDS011;17580;50.850;4.504;2024-03-29T11:12:47;1.37;;;0.90;;
10191;SDS011;17580;50.850;4.504;2024-03-29T11:15:22;1.20;;;1.10;;
10191;SDS011;17580;50.850;4.504;2024-03-29T11:17:54;2.80;;;1.30;;
10191;SDS011;17580;50.850;4.504;2024-03-29T11:20:22;1.00;;;1.00;;
10191;SDS011;17580;50.850;4.504;2024-03-29T11:22:58;1.00;;;1.00;;
10191;SDS011;17580;50.850;4.504;2024-03-29T11:25:36;1.30;;;1.20;;
10191;SDS011;17580;50.850;4.504;2024-03-29T11:28:05;1.37;;;1.37;;
10191;SDS011;17580;50.850;4.504;2024-03-29T11:30:40;1.83;;;0.90;;
10191;SDS011;17580;50.850;4.504;2024-03-29T11:33:08;1.00;;;1.00;;
10191;SDS011;17580;50.850;4.504;2024-03-29T11:35:39;4.10;;;1.20;;
10191;SDS011;17580;50.850;4.504;2024-03-29T11:38:06;3.60;;;1.00;;
10191;SDS011;17580;50.850;4.504;2024-03-29T11:40:34;0.93;;;0.93;;
10191;SDS011;17580;50.850;4.504;2024-03-29T11:43:01;1.27;;;1.17;;
10191;SDS011;17580;50.850;4.504;2024-03-29T11:45:29;1.10;;;1.10;;
10191;SDS011;17580;50.850;4.504;2024-03-29T11:48:01;1.93;;;1.10;;
10191;SDS011;17580;50.850;4.504;2024-03-29T11:50:32;0.80;;;0.80;;
10191;SDS011;17580;50.850;4.504;2024-03-29T11:53:01;1.60;;;1.50;;
10191;SDS011;17580;50.850;4.504;2024-03-29T11:55:29;2.53;;;1.73;;
10191;SDS011;17580;50.850;4.504;2024-03-29T11:57:59;1.53;;;0.90;;
10191;SDS011;17580;50.850;4.504;2024-03-29T12:00:26;0.90;;;0.90;;
10191;SDS011;17580;50.850;4.504;2024-03-29T12:02:55;2.33;;;1.13;;
10191;SDS011;17580;50.850;4.504;2024-03-29T12:05:24;1.33;;;1.20;;
10191;SDS011;17580;50.850;4.504;2024-03-29T12:07:52;3.00;;;1.00;;
10191;SDS011;17580;50.850;4.504;2024-03-29T12:10:19;1.53;;;1.10;;
10191;SDS011;17580;50.850;4.504;2024-03-29T12:12:46;1.03;;;0.93;;
10191;SDS011;17580;50.850;4.504;2024-03-29T12:15:15;0.80;;;0.80;;
10191;SDS011;17580;50.850;4.504;2024-03-29T12:17:52;0.77;;;0.77;;
10191;SDS011;17580;50.850;4.504;2024-03-29T12:20:19;0.97;;;0.70;;
10191;SDS011;17580;50.850;4.504;2024-03-29T12:22:48;0.90;;;0.90;;
10191;SDS011;17580;50.850;4.504;2024-03-29T12:25:16;0.83;;;0.83;;
10191;SDS011;17580;50.850;4.504;2024-03-29T12:27:43;0.67;;;0.67;;
10191;SDS011;17580;50.850;4.504;2024-03-29T12:30:11;1.40;;;0.90;;
10191;SDS011;17580;50.850;4.504;2024-03-29T12:32:39;0.60;;;0.60;;
10191;SDS011;17580;50.850;4.504;2024-03-29T12:35:07;0.70;;;0.70;;
10191;SDS011;17580;50.850;4.504;2024-03-29T12:37:35;1.23;;;1.13;;
10191;SDS011;17580;50.850;4.504;2024-03-29T12:40:04;1.03;;;0.93;;
10191;SDS011;17580;50.850;4.504;2024-03-29T12:42:37;1.77;;;1.13;;
10191;SDS011;17580;50.850;4.504;2024-03-29T12:45:05;0.90;;;0.90;;
10191;SDS011;17580;50.850;4.504;2024-03-29T12:47:32;0.80;;;0.80;;
10191;SDS011;17580;50.850;4.504;2024-03-29T12:50:00;1.03;;;0.93;;
10191;SDS011;17580;50.850;4.504;2024-03-29T12:52:35;1.23;;;1.23;;
10191;SDS011;17580;50.850;4.504;2024-03-29T12:55:05;1.30;;;0.90;;
10191;SDS011;17580;50.850;4.504;2024-03-29T12:57:33;0.77;;;0.70;;
10191;SDS011;17580;50.850;4.504;2024-03-29T13:00:01;1.00;;;1.00;;
10191;SDS011;17580;50.850;4.504;2024-03-29T13:02:28;0.90;;;0.90;;
10191;SDS011;17580;50.850;4.504;2024-03-29T13:04:56;1.50;;;0.80;;
10191;SDS011;17580;50.850;4.504;2024-03-29T13:07:23;0.70;;;0.70;;
10191;SDS011;17580;50.850;4.504;2024-03-29T13:09:51;0.80;;;0.80;;
10191;SDS011;17580;50.850;4.504;2024-03-29T13:12:20;4.10;;;0.80;;
10191;SDS011;17580;50.850;4.504;2024-03-29T13:14:48;1.37;;;0.70;;
10191;SDS011;17580;50.850;4.504;2024-03-29T13:17:15;1.87;;;0.90;;
10191;SDS011;17580;50.850;4.504;2024-03-29T13:19:43;0.70;;;0.70;;
10191;SDS011;17580;50.850;4.504;2024-03-29T13:22:10;1.47;;;1.20;;
10191;SDS011;17580;50.850;4.504;2024-03-29T13:24:37;0.87;;;0.87;;
10191;SDS011;17580;50.850;4.504;2024-03-29T13:27:05;3.17;;;1.30;;
10191;SDS011;17580;50.850;4.504;2024-03-29T13:29:34;0.73;;;0.73;;
10191;SDS011;17580;50.850;4.504;2024-03-29T13:32:01;1.10;;;1.00;;
10191;SDS011;17580;50.850;4.504;2024-03-29T13:34:29;0.93;;;0.70;;
10191;SDS011;17580;50.850;4.504;2024-03-29T13:36:56;0.70;;;0.70;;
10191;SDS011;17580;50.850;4.504;2024-03-29T13:39:24;0.93;;;0.90;;
10191;SDS011;17580;50.850;4.504;2024-03-29T13:41:51;1.00;;;1.00;;
10191;SDS011;17580;50.850;4.504;2024-03-29T13:44:19;0.80;;;0.80;;
10191;SDS011;17580;50.850;4.504;2024-03-29T13:46:48;0.80;;;0.80;;
10191;SDS011;17580;50.850;4.504;2024-03-29T13:49:16;0.87;;;0.87;;
10191;SDS011;17580;50.850;4.504;2024-03-29T13:51:45;1.90;;;0.90;;
10191;SDS011;17580;50.850;4.504;2024-03-29T13:54:13;1.00;;;1.00;;
10191;SDS011;17580;50.850;4.504;2024-03-29T13:56:40;0.97;;;0.97;;
10191;SDS011;17580;50.850;4.504;2024-03-29T13:59:08;1.10;;;1.00;;
10191;SDS011;17580;50.850;4.504;2024-03-29T14:01:35;1.20;;;1.10;;
10191;SDS011;17580;50.850;4.504;2024-03-29T14:04:04;1.13;;;1.13;;
10191;SDS011;17580;50.850;4.504;2024-03-29T14:06:31;2.13;;;1.53;;
10191;SDS011;17580;50.850;4.504;2024-03-29T14:08:59;1.00;;;1.00;;
10191;SDS011;17580;50.850;4.504;2024-03-29T14:11:27;1.97;;;1.10;;
10191;SDS011;17580;50.850;4.504;2024-03-29T14:13:55;0.97;;;0.97;;
10191;SDS011;17580;50.850;4.504;2024-03-29T14:16:33;1.20;;;1.10;;
10191;SDS011;17580;50.850;4.504;2024-03-29T14:19:03;1.03;;;1.03;;
10191;SDS011;17580;50.850;4.504;2024-03-29T14:21:31;1.10;;;1.10;;
10191;SDS011;17580;50.850;4.504;2024-03-29T14:23:59;1.13;;;1.00;;
10191;SDS011;17580;50.850;4.504;2024-03-29T14:26:26;2.60;;;1.20;;
10191;SDS011;17580;50.850;4.504;2024-03-29T14:28:54;1.23;;;0.90;;
10191;SDS011;17580;50.850;4.504;2024-03-29T14:31:21;1.03;;;0.93;;
10191;SDS011;17580;50.850;4.504;2024-03-29T14:33:48;1.77;;;1.00;;
10191;SDS011;17580;50.850;4.504;2024-03-29T14:36:17;2.27;;;1.10;;
10191;SDS011;17580;50.850;4.504;2024-03-29T14:38:45;2.97;;;1.17;;
10191;SDS011;17580;50.850;4.504;2024-03-29T14:41:13;1.27;;;0.90;;
10191;SDS011;17580;50.850;4.504;2024-03-29T14:43:40;1.33;;;1.10;;
10191;SDS011;17580;50.850;4.504;2024-03-29T14:46:09;0.80;;;0.80;;
10191;SDS011;17580;50.850;4.504;2024-03-29T14:48:36;2.00;;;1.03;;
10191;SDS011;17580;50.850;4.504;2024-03-29T14:51:04;0.97;;;0.90;;